createdAt,value
2023-03-02T00:04:45.137Z,1.20
2023-03-02T00:09:48.088Z,1.10
2023-03-02T00:14:51.215Z,1.10
2023-03-02T00:19:55.637Z,1.10
2023-03-02T00:24:58.578Z,1.00
2023-03-02T00:30:01.898Z,1.00
2023-03-02T00:35:06.124Z,0.90
2023-03-02T00:40:10.698Z,0.90
2023-03-02T00:45:13.556Z,0.80
2023-03-02T00:50:16.716Z,0.80
2023-03-02T00:55:20.056Z,0.80
2023-03-02T01:00:24.468Z,0.70
2023-03-02T01:05:27.428Z,0.70
2023-03-02T01:10:32.959Z,0.70
2023-03-02T01:15:36.947Z,0.60
2023-03-02T01:20:39.924Z,0.60
2023-03-02T01:25:42.865Z,0.50
2023-03-02T01:30:47.173Z,0.40
2023-03-02T01:35:50.247Z,0.40
2023-03-02T01:40:53.327Z,0.30
2023-03-02T01:46:02.000Z,0.20
2023-03-02T01:51:07.154Z,0.20
2023-03-02T01:56:10.632Z,0.10
2023-03-02T02:01:17.381Z,0.10
2023-03-02T02:06:25.819Z,0.00
2023-03-02T02:11:28.680Z,0.00
2023-03-02T02:16:35.098Z,0.00
2023-03-02T02:21:38.401Z,0.00
2023-03-02T02:26:52.129Z,-0.10
2023-03-02T02:32:12.233Z,-0.10
2023-03-02T02:37:22.246Z,-0.20
2023-03-02T02:42:31.416Z,-0.20
2023-03-02T02:47:35.308Z,-0.20
2023-03-02T02:52:41.063Z,-0.20
2023-03-02T02:57:44.048Z,-0.30
2023-03-02T03:02:56.030Z,-0.30
2023-03-02T03:08:46.235Z,-0.30
2023-03-02T03:14:08.491Z,-0.20
2023-03-02T03:19:23.924Z,-0.30
2023-03-02T03:24:29.611Z,-0.30
2023-03-02T03:29:34.652Z,-0.30
2023-03-02T03:34:41.065Z,-0.40
2023-03-02T03:39:45.129Z,-0.40
2023-03-02T03:44:48.096Z,-0.40
2023-03-02T03:49:51.147Z,-0.40
2023-03-02T03:54:54.063Z,-0.50
2023-03-02T03:59:57.529Z,-0.50
2023-03-02T04:05:06.486Z,-0.60
2023-03-02T04:10:10.945Z,-0.60
2023-03-02T04:15:16.593Z,-0.60
2023-03-02T04:20:22.841Z,-0.60
2023-03-02T04:25:29.237Z,-0.70
2023-03-02T04:30:33.551Z,-0.80
2023-03-02T04:35:36.785Z,-0.80
2023-03-02T04:40:39.608Z,-0.80
2023-03-02T04:45:42.534Z,-0.80
2023-03-02T04:50:45.548Z,-0.80
2023-03-02T04:55:48.712Z,-0.80
2023-03-02T05:00:51.776Z,-0.80
2023-03-02T05:05:54.783Z,-0.80
2023-03-02T05:10:58.611Z,-0.80
2023-03-02T05:16:02.896Z,-0.80
2023-03-02T05:21:06.379Z,-0.90
2023-03-02T05:26:10.542Z,-0.90
2023-03-02T05:31:23.516Z,-0.90
2023-03-02T05:36:26.759Z,-0.90
2023-03-02T05:41:30.063Z,-0.90
2023-03-02T05:46:33.460Z,-0.90
2023-03-02T05:51:36.682Z,-0.90
2023-03-02T05:56:39.791Z,-0.90
2023-03-02T06:01:43.353Z,-0.80
2023-03-02T06:06:46.296Z,-0.70
2023-03-02T06:11:49.297Z,-0.60
2023-03-02T06:16:52.230Z,-0.50
2023-03-02T06:21:55.420Z,-0.40
2023-03-02T06:26:58.296Z,-0.30
2023-03-02T06:32:01.528Z,0.00
2023-03-02T06:37:04.576Z,0.20
2023-03-02T06:42:07.676Z,0.40
2023-03-02T06:47:10.694Z,0.70
2023-03-02T06:52:14.451Z,0.90
2023-03-02T06:57:17.398Z,1.20
2023-03-02T07:02:20.380Z,1.40
2023-03-02T07:07:23.737Z,1.80
2023-03-02T07:12:26.579Z,2.10
2023-03-02T07:17:29.950Z,2.40
2023-03-02T07:22:33.630Z,2.70
2023-03-02T07:27:37.610Z,3.00
2023-03-02T07:32:41.065Z,3.40
2023-03-02T07:37:44.818Z,3.70
2023-03-02T07:42:47.780Z,3.90
2023-03-02T07:47:51.316Z,4.20
2023-03-02T07:52:54.269Z,4.50
2023-03-02T07:57:57.211Z,5.00
2023-03-02T08:03:00.920Z,5.80
2023-03-02T08:08:04.257Z,7.00
2023-03-02T08:13:07.257Z,8.20
2023-03-02T08:18:10.445Z,9.20
2023-03-02T08:23:13.365Z,9.90
2023-03-02T08:28:16.632Z,10.40
2023-03-02T08:33:19.644Z,10.80
2023-03-02T08:38:23.761Z,11.30
2023-03-02T08:43:26.780Z,11.80
2023-03-02T08:48:30.045Z,12.30
2023-03-02T08:53:38.336Z,12.70
2023-03-02T08:58:41.289Z,13.10
2023-03-02T09:03:44.431Z,13.20
2023-03-02T09:08:47.858Z,13.30
2023-03-02T09:13:51.343Z,13.70
2023-03-02T09:18:55.144Z,13.90
2023-03-02T09:23:58.565Z,14.10
2023-03-02T09:29:01.947Z,14.40
2023-03-02T09:34:05.629Z,14.50
2023-03-02T09:39:12.397Z,14.60
2023-03-02T09:44:42.606Z,14.50
2023-03-02T09:49:53.794Z,14.80
2023-03-02T09:55:21.107Z,15.10
2023-03-02T10:00:26.922Z,15.50
2023-03-02T10:05:42.264Z,15.80
2023-03-02T10:11:12.899Z,15.70
2023-03-02T10:16:49.404Z,15.60
2023-03-02T10:22:02.182Z,15.30
2023-03-02T10:27:28.678Z,15.00
2023-03-02T10:32:38.590Z,15.30
2023-03-02T10:37:41.831Z,15.60
2023-03-02T10:42:44.900Z,16.10
2023-03-02T10:47:47.921Z,16.50
2023-03-02T10:53:00.124Z,17.20
2023-03-02T10:58:07.411Z,17.60
2023-03-02T11:03:23.679Z,18.00
2023-03-02T11:08:28.810Z,18.50
2023-03-02T11:13:38.300Z,18.80
2023-03-02T11:19:03.120Z,19.10
2023-03-02T11:24:42.340Z,19.30
2023-03-02T11:30:12.767Z,19.30
2023-03-02T11:35:58.467Z,19.50
2023-03-02T11:41:19.018Z,19.70
2023-03-02T11:46:32.329Z,19.70
2023-03-02T11:51:57.850Z,19.80
2023-03-02T11:57:01.701Z,20.10
2023-03-02T12:02:09.086Z,20.50
2023-03-02T12:07:27.727Z,20.60
2023-03-02T12:12:57.682Z,20.50
2023-03-02T12:18:00.776Z,20.50
2023-03-02T12:23:10.654Z,20.50
2023-03-02T12:28:31.915Z,20.10
2023-03-02T12:33:46.809Z,19.10
2023-03-02T12:39:26.389Z,17.80
2023-03-02T12:44:55.156Z,16.60
2023-03-02T12:50:16.275Z,15.70
2023-03-02T12:55:20.251Z,15.10
2023-03-02T13:00:31.556Z,14.60
2023-03-02T13:05:35.989Z,14.30
2023-03-02T13:10:53.755Z,14.10
2023-03-02T13:16:21.934Z,14.00
2023-03-02T13:21:45.229Z,13.90
2023-03-02T13:27:07.063Z,13.70
2023-03-02T13:32:34.610Z,13.70
2023-03-02T13:37:40.960Z,13.70
2023-03-02T13:42:43.850Z,13.60
2023-03-02T13:47:46.568Z,13.60
2023-03-02T13:52:50.334Z,13.60
2023-03-02T13:57:56.016Z,13.60
2023-03-02T14:02:59.969Z,13.50
2023-03-02T14:08:03.527Z,13.50
2023-03-02T14:13:10.785Z,13.40
2023-03-02T14:18:45.012Z,13.40
2023-03-02T14:23:48.512Z,13.40
2023-03-02T14:29:04.701Z,13.30
2023-03-02T14:34:13.731Z,13.30
2023-03-02T14:39:39.256Z,13.30
2023-03-02T14:44:44.255Z,13.40
2023-03-02T14:49:48.997Z,13.30
2023-03-02T14:54:57.998Z,13.20
2023-03-02T15:00:01.378Z,13.20
2023-03-02T15:05:06.448Z,13.10
2023-03-02T15:10:20.343Z,13.10
2023-03-02T15:15:24.660Z,13.00
2023-03-02T15:20:28.907Z,12.90
2023-03-02T15:25:32.075Z,12.80
2023-03-02T15:30:35.298Z,12.70
2023-03-02T15:35:40.349Z,12.60
2023-03-02T15:40:43.091Z,12.50
2023-03-02T15:45:46.904Z,12.40
2023-03-02T15:51:01.747Z,12.30
2023-03-02T15:56:12.195Z,12.20
2023-03-02T16:01:16.339Z,11.90
2023-03-02T16:06:19.298Z,11.80
2023-03-02T16:11:23.394Z,11.60
2023-03-02T16:16:26.913Z,11.40
2023-03-02T16:21:30.062Z,11.10
2023-03-02T16:26:36.146Z,10.90
2023-03-02T16:31:39.584Z,10.60
2023-03-02T16:36:43.225Z,10.30
2023-03-02T16:41:46.354Z,9.80
2023-03-02T16:46:49.197Z,9.50
2023-03-02T16:51:58.412Z,9.10
2023-03-02T16:57:01.562Z,8.80
2023-03-02T17:02:04.504Z,8.50
2023-03-02T17:07:08.372Z,8.30
2023-03-02T17:12:11.360Z,8.00
2023-03-02T17:17:15.513Z,7.80
2023-03-02T17:22:18.510Z,7.60
2023-03-02T17:27:25.624Z,7.50
2023-03-02T17:32:28.935Z,7.30
2023-03-02T17:37:33.222Z,7.20
2023-03-02T17:42:39.453Z,7.10
2023-03-02T17:47:42.372Z,6.90
2023-03-02T17:52:45.355Z,6.80
2023-03-02T17:57:48.357Z,6.60
2023-03-02T18:02:52.112Z,6.40
2023-03-02T18:07:55.350Z,6.30
2023-03-02T18:12:58.877Z,6.10
2023-03-02T18:18:01.932Z,6.00
2023-03-02T18:23:05.272Z,6.00
2023-03-02T18:28:08.246Z,6.00
2023-03-02T18:33:11.320Z,5.90
2023-03-02T18:38:14.291Z,5.90
2023-03-02T18:43:17.200Z,5.80
2023-03-02T18:48:20.276Z,5.80
2023-03-02T18:53:23.348Z,6.00
2023-03-02T18:58:27.668Z,6.00
2023-03-02T19:03:31.264Z,5.90
2023-03-02T19:08:35.805Z,5.80
2023-03-02T19:13:38.888Z,5.80
2023-03-02T19:18:41.929Z,5.70
2023-03-02T19:23:46.483Z,5.60
2023-03-02T19:28:49.787Z,5.60
2023-03-02T19:33:52.840Z,5.50
2023-03-02T19:38:55.952Z,5.40
2023-03-02T19:43:59.085Z,5.30
2023-03-02T19:49:04.604Z,5.30
2023-03-02T19:54:07.739Z,5.50
2023-03-02T19:59:11.265Z,5.50
2023-03-02T20:04:14.354Z,5.40
2023-03-02T20:09:19.841Z,5.30
2023-03-02T20:14:33.303Z,5.10
2023-03-02T20:19:36.943Z,4.90
2023-03-02T20:24:41.205Z,4.70
2023-03-02T20:29:44.519Z,4.60
2023-03-02T20:34:47.592Z,4.40
2023-03-02T20:39:50.691Z,4.30
2023-03-02T20:44:56.522Z,4.10
2023-03-02T20:50:00.381Z,4.00
2023-03-02T20:55:06.258Z,3.80
2023-03-02T21:00:16.842Z,3.70
2023-03-02T21:05:21.575Z,3.50
2023-03-02T21:10:33.728Z,3.40
2023-03-02T21:15:37.411Z,3.30
2023-03-02T21:20:40.609Z,3.20
2023-03-02T21:25:44.824Z,3.20
2023-03-02T21:30:47.917Z,3.20
2023-03-02T21:35:50.851Z,3.10
2023-03-02T21:40:54.060Z,3.10
2023-03-02T21:45:57.088Z,3.10
2023-03-02T21:51:00.477Z,3.00
2023-03-02T21:56:03.666Z,2.90
2023-03-02T22:01:07.412Z,2.80
2023-03-02T22:06:30.501Z,2.70
2023-03-02T22:11:37.459Z,2.60
2023-03-02T22:16:45.174Z,2.50
2023-03-02T22:21:49.446Z,2.40
2023-03-02T22:27:23.007Z,2.40
2023-03-02T22:32:36.121Z,2.30
2023-03-02T22:37:39.426Z,2.20
2023-03-02T22:42:42.438Z,2.20
2023-03-02T22:47:51.319Z,2.10
2023-03-02T22:52:57.503Z,2.00
2023-03-02T22:58:30.063Z,2.00
2023-03-02T23:03:45.292Z,2.00
2023-03-02T23:08:48.528Z,1.90
2023-03-02T23:13:53.465Z,1.80
2023-03-02T23:18:59.375Z,1.80
2023-03-02T23:24:02.706Z,1.80
2023-03-02T23:29:06.768Z,1.80
2023-03-02T23:34:11.133Z,1.80
2023-03-02T23:39:14.480Z,1.80
2023-03-02T23:44:19.339Z,1.70
2023-03-02T23:49:22.502Z,1.70
2023-03-02T23:54:25.510Z,1.70
2023-03-02T23:59:28.574Z,1.70
